sensor_id;sensor_type;location;lat;lon;timestamp;P1;durP1;ratioP1;P2;durP2;ratioP2
14883;SDS011;7534;50.762;7.000;2023-12-14T00:00:16;9.00;;;6.77;;
14883;SDS011;7534;50.762;7.000;2023-12-14T00:02:43;10.63;;;8.13;;
14883;SDS011;7534;50.762;7.000;2023-12-14T00:05:09;11.37;;;7.90;;
14883;SDS011;7534;50.762;7.000;2023-12-14T00:07:34;11.87;;;8.80;;
14883;SDS011;7534;50.762;7.000;2023-12-14T00:10:00;9.57;;;7.93;;
14883;SDS011;7534;50.762;7.000;2023-12-14T00:12:27;13.00;;;9.83;;
14883;SDS011;7534;50.762;7.000;2023-12-14T00:14:57;11.50;;;9.30;;
14883;SDS011;7534;50.762;7.000;2023-12-14T00:17:22;11.63;;;8.90;;
14883;SDS011;7534;50.762;7.000;2023-12-14T00:19:48;14.17;;;9.47;;
14883;SDS011;7534;50.762;7.000;2023-12-14T00:22:14;12.37;;;10.20;;
14883;SDS011;7534;50.762;7.000;2023-12-14T00:24:40;13.00;;;10.70;;
14883;SDS011;7534;50.762;7.000;2023-12-14T00:27:05;13.20;;;10.93;;
14883;SDS011;7534;50.762;7.000;2023-12-14T00:29:31;14.87;;;11.07;;
14883;SDS011;7534;50.762;7.000;2023-12-14T00:31:57;12.40;;;10.53;;
14883;SDS011;7534;50.762;7.000;2023-12-14T00:34:23;13.57;;;10.83;;
14883;SDS011;7534;50.762;7.000;2023-12-14T00:36:50;13.40;;;11.23;;
14883;SDS011;7534;50.762;7.000;2023-12-14T00:39:16;13.60;;;11.17;;
14883;SDS011;7534;50.762;7.000;2023-12-14T00:41:42;15.97;;;11.30;;
14883;SDS011;7534;50.762;7.000;2023-12-14T00:44:07;14.63;;;10.63;;
14883;SDS011;7534;50.762;7.000;2023-12-14T00:46:33;16.40;;;12.43;;
14883;SDS011;7534;50.762;7.000;2023-12-14T00:48:59;13.87;;;11.10;;
14883;SDS011;7534;50.762;7.000;2023-12-14T00:51:24;15.50;;;11.53;;
14883;SDS011;7534;50.762;7.000;2023-12-14T00:53:50;15.70;;;11.20;;
14883;SDS011;7534;50.762;7.000;2023-12-14T00:56:16;18.40;;;12.70;;
14883;SDS011;7534;50.762;7.000;2023-12-14T00:58:41;17.57;;;13.00;;
14883;SDS011;7534;50.762;7.000;2023-12-14T01:01:07;20.57;;;14.23;;
14883;SDS011;7534;50.762;7.000;2023-12-14T01:03:33;21.30;;;15.53;;
14883;SDS011;7534;50.762;7.000;2023-12-14T01:05:58;20.23;;;14.40;;
14883;SDS011;7534;50.762;7.000;2023-12-14T01:08:26;21.97;;;15.50;;
14883;SDS011;7534;50.762;7.000;2023-12-14T01:10:52;23.80;;;17.03;;
14883;SDS011;7534;50.762;7.000;2023-12-14T01:13:17;24.20;;;16.73;;
14883;SDS011;7534;50.762;7.000;2023-12-14T01:15:43;29.30;;;19.70;;
14883;SDS011;7534;50.762;7.000;2023-12-14T01:18:10;30.40;;;20.60;;
14883;SDS011;7534;50.762;7.000;2023-12-14T01:20:36;31.70;;;21.60;;
14883;SDS011;7534;50.762;7.000;2023-12-14T01:23:01;33.43;;;22.87;;
14883;SDS011;7534;50.762;7.000;2023-12-14T01:25:27;33.67;;;22.53;;
14883;SDS011;7534;50.762;7.000;2023-12-14T01:27:53;33.80;;;21.90;;
14883;SDS011;7534;50.762;7.000;2023-12-14T01:30:19;32.23;;;22.30;;
14883;SDS011;7534;50.762;7.000;2023-12-14T01:32:44;37.07;;;23.33;;
14883;SDS011;7534;50.762;7.000;2023-12-14T01:35:10;35.83;;;23.30;;
14883;SDS011;7534;50.762;7.000;2023-12-14T01:37:36;39.30;;;24.67;;
14883;SDS011;7534;50.762;7.000;2023-12-14T01:40:01;37.63;;;24.20;;
14883;SDS011;7534;50.762;7.000;2023-12-14T01:42:27;42.20;;;25.47;;
14883;SDS011;7534;50.762;7.000;2023-12-14T01:44:53;39.97;;;25.27;;
14883;SDS011;7534;50.762;7.000;2023-12-14T01:47:19;44.00;;;27.10;;
14883;SDS011;7534;50.762;7.000;2023-12-14T01:49:44;44.07;;;26.87;;
14883;SDS011;7534;50.762;7.000;2023-12-14T01:52:10;44.63;;;28.43;;
14883;SDS011;7534;50.762;7.000;2023-12-14T01:54:36;46.20;;;27.30;;
14883;SDS011;7534;50.762;7.000;2023-12-14T01:57:01;50.20;;;29.07;;
14883;SDS011;7534;50.762;7.000;2023-12-14T01:59:27;49.43;;;28.33;;
14883;SDS011;7534;50.762;7.000;2023-12-14T02:01:53;53.63;;;28.63;;
14883;SDS011;7534;50.762;7.000;2023-12-14T02:04:22;47.83;;;27.03;;
14883;SDS011;7534;50.762;7.000;2023-12-14T02:06:50;49.77;;;29.17;;
14883;SDS011;7534;50.762;7.000;2023-12-14T02:09:15;53.10;;;27.67;;
14883;SDS011;7534;50.762;7.000;2023-12-14T02:11:41;55.07;;;29.87;;
14883;SDS011;7534;50.762;7.000;2023-12-14T02:14:08;53.37;;;29.20;;
14883;SDS011;7534;50.762;7.000;2023-12-14T02:16:35;51.43;;;27.77;;
14883;SDS011;7534;50.762;7.000;2023-12-14T02:19:03;49.60;;;27.40;;
14883;SDS011;7534;50.762;7.000;2023-12-14T02:21:30;49.43;;;28.00;;
14883;SDS011;7534;50.762;7.000;2023-12-14T02:23:55;62.63;;;29.13;;
14883;SDS011;7534;50.762;7.000;2023-12-14T02:26:21;50.67;;;28.83;;
14883;SDS011;7534;50.762;7.000;2023-12-14T02:28:47;52.40;;;30.27;;
14883;SDS011;7534;50.762;7.000;2023-12-14T02:31:13;50.47;;;29.07;;
14883;SDS011;7534;50.762;7.000;2023-12-14T02:33:39;54.47;;;29.63;;
14883;SDS011;7534;50.762;7.000;2023-12-14T02:36:04;51.97;;;29.50;;
14883;SDS011;7534;50.762;7.000;2023-12-14T02:38:30;54.23;;;30.33;;
14883;SDS011;7534;50.762;7.000;2023-12-14T02:40:57;57.80;;;31.83;;
14883;SDS011;7534;50.762;7.000;2023-12-14T02:43:23;54.50;;;30.20;;
14883;SDS011;7534;50.762;7.000;2023-12-14T02:45:49;57.37;;;30.00;;
14883;SDS011;7534;50.762;7.000;2023-12-14T02:48:15;62.60;;;32.30;;
14883;SDS011;7534;50.762;7.000;2023-12-14T02:50:40;66.47;;;35.13;;
14883;SDS011;7534;50.762;7.000;2023-12-14T02:53:06;61.77;;;32.60;;
14883;SDS011;7534;50.762;7.000;2023-12-14T02:55:32;58.37;;;31.37;;
14883;SDS011;7534;50.762;7.000;2023-12-14T02:57:58;59.03;;;31.63;;
14883;SDS011;7534;50.762;7.000;2023-12-14T03:00:23;59.13;;;31.33;;
14883;SDS011;7534;50.762;7.000;2023-12-14T03:02:49;58.23;;;31.27;;
14883;SDS011;7534;50.762;7.000;2023-12-14T03:05:15;63.10;;;32.53;;
14883;SDS011;7534;50.762;7.000;2023-12-14T03:07:40;61.27;;;33.27;;
14883;SDS011;7534;50.762;7.000;2023-12-14T03:10:06;52.80;;;31.70;;
14883;SDS011;7534;50.762;7.000;2023-12-14T03:12:33;59.67;;;32.80;;
14883;SDS011;7534;50.762;7.000;2023-12-14T03:14:58;61.73;;;32.93;;
14883;SDS011;7534;50.762;7.000;2023-12-14T03:17:24;72.13;;;35.97;;
14883;SDS011;7534;50.762;7.000;2023-12-14T03:19:50;68.00;;;34.63;;
14883;SDS011;7534;50.762;7.000;2023-12-14T03:22:15;69.97;;;34.73;;
14883;SDS011;7534;50.762;7.000;2023-12-14T03:24:41;70.07;;;35.03;;
14883;SDS011;7534;50.762;7.000;2023-12-14T03:27:07;76.17;;;37.57;;
14883;SDS011;7534;50.762;7.000;2023-12-14T03:29:33;74.73;;;35.70;;
14883;SDS011;7534;50.762;7.000;2023-12-14T03:31:59;79.43;;;38.30;;
14883;SDS011;7534;50.762;7.000;2023-12-14T03:34:25;81.13;;;38.60;;
14883;SDS011;7534;50.762;7.000;2023-12-14T03:36:51;66.80;;;34.90;;
14883;SDS011;7534;50.762;7.000;2023-12-14T03:39:17;69.20;;;35.80;;
14883;SDS011;7534;50.762;7.000;2023-12-14T03:41:43;60.23;;;33.50;;
14883;SDS011;7534;50.762;7.000;2023-12-14T03:44:10;59.90;;;32.63;;
14883;SDS011;7534;50.762;7.000;2023-12-14T03:46:36;68.40;;;35.30;;
14883;SDS011;7534;50.762;7.000;2023-12-14T03:49:02;61.37;;;32.90;;
14883;SDS011;7534;50.762;7.000;2023-12-14T03:51:28;60.07;;;30.97;;
14883;SDS011;7534;50.762;7.000;2023-12-14T03:53:54;56.80;;;31.17;;
14883;SDS011;7534;50.762;7.000;2023-12-14T03:56:20;55.10;;;29.67;;
14883;SDS011;7534;50.762;7.000;2023-12-14T03:58:46;46.80;;;27.70;;
14883;SDS011;7534;50.762;7.000;2023-12-14T04:01:18;53.97;;;28.93;;
14883;SDS011;7534;50.762;7.000;2023-12-14T04:03:46;45.47;;;26.77;;
14883;SDS011;7534;50.762;7.000;2023-12-14T04:06:12;46.17;;;27.33;;
14883;SDS011;7534;50.762;7.000;2023-12-14T04:08:39;45.50;;;26.00;;
14883;SDS011;7534;50.762;7.000;2023-12-14T04:11:07;41.87;;;26.33;;
14883;SDS011;7534;50.762;7.000;2023-12-14T04:13:33;44.43;;;26.73;;
14883;SDS011;7534;50.762;7.000;2023-12-14T04:15:59;44.17;;;28.43;;
14883;SDS011;7534;50.762;7.000;2023-12-14T04:18:25;46.93;;;28.20;;
14883;SDS011;7534;50.762;7.000;2023-12-14T04:20:51;48.30;;;28.57;;
14883;SDS011;7534;50.762;7.000;2023-12-14T04:23:17;50.03;;;29.33;;
14883;SDS011;7534;50.762;7.000;2023-12-14T04:25:44;44.43;;;27.33;;
14883;SDS011;7534;50.762;7.000;2023-12-14T04:28:09;46.97;;;28.27;;
14883;SDS011;7534;50.762;7.000;2023-12-14T04:30:35;45.57;;;28.60;;
14883;SDS011;7534;50.762;7.000;2023-12-14T04:33:01;48.00;;;28.07;;
14883;SDS011;7534;50.762;7.000;2023-12-14T04:35:26;45.77;;;27.60;;
14883;SDS011;7534;50.762;7.000;2023-12-14T04:37:52;45.97;;;27.10;;
14883;SDS011;7534;50.762;7.000;2023-12-14T04:40:18;47.13;;;27.97;;
14883;SDS011;7534;50.762;7.000;2023-12-14T04:42:44;46.10;;;27.73;;
14883;SDS011;7534;50.762;7.000;2023-12-14T04:45:09;47.73;;;28.00;;
14883;SDS011;7534;50.762;7.000;2023-12-14T04:47:35;44.27;;;27.40;;
14883;SDS011;7534;50.762;7.000;2023-12-14T04:50:02;48.37;;;27.73;;
14883;SDS011;7534;50.762;7.000;2023-12-14T04:52:29;42.70;;;27.00;;
14883;SDS011;7534;50.762;7.000;2023-12-14T04:54:54;42.57;;;27.07;;
14883;SDS011;7534;50.762;7.000;2023-12-14T04:57:20;42.33;;;27.40;;
14883;SDS011;7534;50.762;7.000;2023-12-14T04:59:46;39.97;;;26.03;;
14883;SDS011;7534;50.762;7.000;2023-12-14T05:02:11;40.87;;;26.90;;
14883;SDS011;7534;50.762;7.000;2023-12-14T05:04:37;44.67;;;28.37;;
14883;SDS011;7534;50.762;7.000;2023-12-14T05:07:03;51.57;;;30.47;;
14883;SDS011;7534;50.762;7.000;2023-12-14T05:09:29;56.43;;;32.50;;
14883;SDS011;7534;50.762;7.000;2023-12-14T05:11:54;55.67;;;33.87;;
14883;SDS011;7534;50.762;7.000;2023-12-14T05:14:20;51.07;;;32.70;;
14883;SDS011;7534;50.762;7.000;2023-12-14T05:16:47;52.63;;;32.90;;
14883;SDS011;7534;50.762;7.000;2023-12-14T05:19:13;51.07;;;32.67;;
14883;SDS011;7534;50.762;7.000;2023-12-14T05:21:39;50.50;;;32.03;;
14883;SDS011;7534;50.762;7.000;2023-12-14T05:24:04;53.50;;;33.27;;
14883;SDS011;7534;50.762;7.000;2023-12-14T05:26:30;54.73;;;34.57;;
14883;SDS011;7534;50.762;7.000;2023-12-14T05:28:56;58.57;;;33.33;;
14883;SDS011;7534;50.762;7.000;2023-12-14T05:31:22;63.83;;;35.47;;
14883;SDS011;7534;50.762;7.000;2023-12-14T05:33:48;59.93;;;34.20;;
14883;SDS011;7534;50.762;7.000;2023-12-14T05:36:14;57.47;;;34.40;;
14883;SDS011;7534;50.762;7.000;2023-12-14T05:38:40;59.00;;;34.90;;
14883;SDS011;7534;50.762;7.000;2023-12-14T05:41:07;57.50;;;33.73;;
14883;SDS011;7534;50.762;7.000;2023-12-14T05:43:33;60.43;;;34.53;;
14883;SDS011;7534;50.762;7.000;2023-12-14T05:45:59;57.80;;;33.37;;
14883;SDS011;7534;50.762;7.000;2023-12-14T05:48:25;57.70;;;33.03;;
14883;SDS011;7534;50.762;7.000;2023-12-14T05:50:54;56.20;;;32.00;;
14883;SDS011;7534;50.762;7.000;2023-12-14T05:53:21;53.90;;;30.63;;
14883;SDS011;7534;50.762;7.000;2023-12-14T05:55:47;55.50;;;31.37;;
14883;SDS011;7534;50.762;7.000;2023-12-14T05:58:13;56.07;;;32.10;;
14883;SDS011;7534;50.762;7.000;2023-12-14T06:00:38;55.37;;;32.93;;
14883;SDS011;7534;50.762;7.000;2023-12-14T06:03:05;58.27;;;32.30;;
14883;SDS011;7534;50.762;7.000;2023-12-14T06:05:30;60.20;;;32.63;;
14883;SDS011;7534;50.762;7.000;2023-12-14T06:07:56;54.73;;;32.07;;
14883;SDS011;7534;50.762;7.000;2023-12-14T06:10:22;58.03;;;31.63;;
14883;SDS011;7534;50.762;7.000;2023-12-14T06:12:47;52.10;;;30.27;;
14883;SDS011;7534;50.762;7.000;2023-12-14T06:15:13;57.07;;;32.03;;
14883;SDS011;7534;50.762;7.000;2023-12-14T06:17:39;59.90;;;34.67;;
14883;SDS011;7534;50.762;7.000;2023-12-14T06:20:07;64.60;;;33.40;;
14883;SDS011;7534;50.762;7.000;2023-12-14T06:22:33;65.00;;;35.60;;
14883;SDS011;7534;50.762;7.000;2023-12-14T06:25:01;53.77;;;32.97;;
14883;SDS011;7534;50.762;7.000;2023-12-14T06:27:28;54.70;;;33.43;;
14883;SDS011;7534;50.762;7.000;2023-12-14T06:29:54;51.03;;;30.53;;
14883;SDS011;7534;50.762;7.000;2023-12-14T06:32:19;47.70;;;30.53;;
14883;SDS011;7534;50.762;7.000;2023-12-14T06:34:45;48.23;;;30.50;;
14883;SDS011;7534;50.762;7.000;2023-12-14T06:37:11;49.43;;;30.73;;
14883;SDS011;7534;50.762;7.000;2023-12-14T06:39:37;49.17;;;29.80;;
14883;SDS011;7534;50.762;7.000;2023-12-14T06:42:02;45.50;;;28.90;;
14883;SDS011;7534;50.762;7.000;2023-12-14T06:44:28;48.27;;;31.27;;
14883;SDS011;7534;50.762;7.000;2023-12-14T06:46:55;54.60;;;33.53;;
14883;SDS011;7534;50.762;7.000;2023-12-14T06:49:23;49.73;;;30.57;;
14883;SDS011;7534;50.762;7.000;2023-12-14T06:51:48;51.00;;;30.63;;
14883;SDS011;7534;50.762;7.000;2023-12-14T06:54:14;50.10;;;30.00;;
14883;SDS011;7534;50.762;7.000;2023-12-14T06:56:40;49.33;;;29.33;;
14883;SDS011;7534;50.762;7.000;2023-12-14T06:59:06;46.60;;;28.47;;
14883;SDS011;7534;50.762;7.000;2023-12-14T07:01:31;47.93;;;28.83;;
14883;SDS011;7534;50.762;7.000;2023-12-14T07:03:57;47.53;;;27.10;;
14883;SDS011;7534;50.762;7.000;2023-12-14T07:06:24;45.17;;;27.20;;
14883;SDS011;7534;50.762;7.000;2023-12-14T07:08:51;46.00;;;27.97;;
14883;SDS011;7534;50.762;7.000;2023-12-14T07:11:17;47.67;;;27.37;;
14883;SDS011;7534;50.762;7.000;2023-12-14T07:13:43;47.73;;;27.17;;
14883;SDS011;7534;50.762;7.000;2023-12-14T07:16:09;45.17;;;26.77;;
14883;SDS011;7534;50.762;7.000;2023-12-14T07:18:36;40.83;;;25.30;;
14883;SDS011;7534;50.762;7.000;2023-12-14T07:21:04;45.33;;;27.47;;
14883;SDS011;7534;50.762;7.000;2023-12-14T07:23:30;43.37;;;26.87;;
14883;SDS011;7534;50.762;7.000;2023-12-14T07:25:56;47.43;;;28.33;;
14883;SDS011;7534;50.762;7.000;2023-12-14T07:28:22;46.27;;;27.30;;
14883;SDS011;7534;50.762;7.000;2023-12-14T07:30:51;39.63;;;24.50;;
14883;SDS011;7534;50.762;7.000;2023-12-14T07:33:16;42.40;;;24.93;;
14883;SDS011;7534;50.762;7.000;2023-12-14T07:35:42;34.27;;;20.90;;
14883;SDS011;7534;50.762;7.000;2023-12-14T07:38:09;35.83;;;20.87;;
14883;SDS011;7534;50.762;7.000;2023-12-14T07:40:36;38.17;;;20.30;;
14883;SDS011;7534;50.762;7.000;2023-12-14T07:43:04;33.23;;;20.50;;
14883;SDS011;7534;50.762;7.000;2023-12-14T07:45:30;34.97;;;19.10;;
14883;SDS011;7534;50.762;7.000;2023-12-14T07:47:57;35.50;;;21.00;;
14883;SDS011;7534;50.762;7.000;2023-12-14T07:50:23;40.07;;;21.60;;
14883;SDS011;7534;50.762;7.000;2023-12-14T07:52:49;37.22;;;22.55;;
14883;SDS011;7534;50.762;7.000;2023-12-14T07:55:15;44.53;;;27.00;;
14883;SDS011;7534;50.762;7.000;2023-12-14T07:57:40;40.83;;;23.13;;
14883;SDS011;7534;50.762;7.000;2023-12-14T08:00:06;37.70;;;22.30;;
14883;SDS011;7534;50.762;7.000;2023-12-14T08:02:36;38.33;;;21.73;;
14883;SDS011;7534;50.762;7.000;2023-12-14T08:05:02;39.50;;;22.17;;
14883;SDS011;7534;50.762;7.000;2023-12-14T08:07:30;38.07;;;22.73;;
14883;SDS011;7534;50.762;7.000;2023-12-14T08:09:57;37.20;;;22.50;;
14883;SDS011;7534;50.762;7.000;2023-12-14T08:12:25;39.80;;;21.70;;
14883;SDS011;7534;50.762;7.000;2023-12-14T08:14:53;36.37;;;20.97;;
14883;SDS011;7534;50.762;7.000;2023-12-14T08:17:29;36.27;;;21.63;;
14883;SDS011;7534;50.762;7.000;2023-12-14T08:19:56;34.80;;;20.40;;
14883;SDS011;7534;50.762;7.000;2023-12-14T08:22:22;42.47;;;22.83;;
14883;SDS011;7534;50.762;7.000;2023-12-14T08:24:48;37.30;;;21.57;;
14883;SDS011;7534;50.762;7.000;2023-12-14T08:27:14;34.63;;;20.67;;
14883;SDS011;7534;50.762;7.000;2023-12-14T08:29:41;41.00;;;23.93;;
14883;SDS011;7534;50.762;7.000;2023-12-14T08:32:07;33.53;;;19.90;;
14883;SDS011;7534;50.762;7.000;2023-12-14T08:34:32;32.17;;;19.13;;
14883;SDS011;7534;50.762;7.000;2023-12-14T08:37:00;30.50;;;18.30;;
14883;SDS011;7534;50.762;7.000;2023-12-14T08:39:26;38.50;;;19.83;;
14883;SDS011;7534;50.762;7.000;2023-12-14T08:41:52;31.97;;;19.33;;
14883;SDS011;7534;50.762;7.000;2023-12-14T08:44:17;32.30;;;18.27;;
14883;SDS011;7534;50.762;7.000;2023-12-14T08:46:44;32.63;;;18.70;;
14883;SDS011;7534;50.762;7.000;2023-12-14T08:49:11;29.43;;;17.97;;
14883;SDS011;7534;50.762;7.000;2023-12-14T08:51:38;26.60;;;17.17;;
14883;SDS011;7534;50.762;7.000;2023-12-14T08:54:06;29.73;;;17.43;;
14883;SDS011;7534;50.762;7.000;2023-12-14T08:56:32;26.23;;;16.43;;
14883;SDS011;7534;50.762;7.000;2023-12-14T08:58:58;31.60;;;17.03;;
14883;SDS011;7534;50.762;7.000;2023-12-14T09:01:25;29.55;;;19.40;;
14883;SDS011;7534;50.762;7.000;2023-12-14T09:03:51;28.83;;;19.48;;
14883;SDS011;7534;50.762;7.000;2023-12-14T09:06:17;26.00;;;16.23;;
14883;SDS011;7534;50.762;7.000;2023-12-14T09:08:44;27.03;;;17.73;;
14883;SDS011;7534;50.762;7.000;2023-12-14T09:11:10;24.40;;;15.43;;
14883;SDS011;7534;50.762;7.000;2023-12-14T09:13:37;24.20;;;14.50;;
14883;SDS011;7534;50.762;7.000;2023-12-14T09:16:04;24.87;;;14.70;;
14883;SDS011;7534;50.762;7.000;2023-12-14T09:18:30;22.40;;;14.40;;
14883;SDS011;7534;50.762;7.000;2023-12-14T09:20:56;24.03;;;14.43;;
14883;SDS011;7534;50.762;7.000;2023-12-14T09:23:22;26.95;;;17.10;;
14883;SDS011;7534;50.762;7.000;2023-12-14T09:25:48;21.57;;;13.60;;
14883;SDS011;7534;50.762;7.000;2023-12-14T09:28:14;22.07;;;14.10;;
14883;SDS011;7534;50.762;7.000;2023-12-14T09:30:40;20.43;;;13.50;;
14883;SDS011;7534;50.762;7.000;2023-12-14T09:33:06;23.03;;;14.37;;
14883;SDS011;7534;50.762;7.000;2023-12-14T09:35:36;21.97;;;13.67;;
14883;SDS011;7534;50.762;7.000;2023-12-14T09:38:02;20.97;;;12.97;;
14883;SDS011;7534;50.762;7.000;2023-12-14T09:40:29;20.80;;;13.37;;
14883;SDS011;7534;50.762;7.000;2023-12-14T09:42:55;22.23;;;13.40;;
14883;SDS011;7534;50.762;7.000;2023-12-14T09:45:23;26.93;;;14.13;;
14883;SDS011;7534;50.762;7.000;2023-12-14T09:47:53;23.57;;;14.93;;
14883;SDS011;7534;50.762;7.000;2023-12-14T09:50:21;21.93;;;13.83;;
14883;SDS011;7534;50.762;7.000;2023-12-14T09:52:49;25.43;;;15.77;;
14883;SDS011;7534;50.762;7.000;2023-12-14T09:55:18;24.97;;;15.53;;
14883;SDS011;7534;50.762;7.000;2023-12-14T09:57:49;25.93;;;15.77;;
14883;SDS011;7534;50.762;7.000;2023-12-14T10:00:37;22.17;;;15.07;;
14883;SDS011;7534;50.762;7.000;2023-12-14T10:05:53;25.80;;;15.93;;
14883;SDS011;7534;50.762;7.000;2023-12-14T10:08:21;27.70;;;18.23;;
14883;SDS011;7534;50.762;7.000;2023-12-14T10:10:48;28.40;;;17.60;;
14883;SDS011;7534;50.762;7.000;2023-12-14T10:13:42;24.37;;;16.70;;
14883;SDS011;7534;50.762;7.000;2023-12-14T10:16:08;27.53;;;16.90;;
14883;SDS011;7534;50.762;7.000;2023-12-14T10:18:33;28.60;;;17.33;;
14883;SDS011;7534;50.762;7.000;2023-12-14T10:21:01;29.00;;;18.73;;
14883;SDS011;7534;50.762;7.000;2023-12-14T10:23:27;26.50;;;17.43;;
14883;SDS011;7534;50.762;7.000;2023-12-14T10:25:55;29.73;;;18.50;;
14883;SDS011;7534;50.762;7.000;2023-12-14T10:28:22;28.43;;;18.73;;
14883;SDS011;7534;50.762;7.000;2023-12-14T10:30:49;27.70;;;18.70;;
14883;SDS011;7534;50.762;7.000;2023-12-14T10:33:15;25.03;;;17.33;;
14883;SDS011;7534;50.762;7.000;2023-12-14T10:35:42;25.13;;;17.93;;
14883;SDS011;7534;50.762;7.000;2023-12-14T10:38:11;24.27;;;16.57;;
14883;SDS011;7534;50.762;7.000;2023-12-14T10:40:37;24.47;;;16.97;;
14883;SDS011;7534;50.762;7.000;2023-12-14T10:43:08;26.93;;;16.17;;
14883;SDS011;7534;50.762;7.000;2023-12-14T10:45:35;24.37;;;16.40;;
14883;SDS011;7534;50.762;7.000;2023-12-14T10:48:04;24.13;;;16.33;;
14883;SDS011;7534;50.762;7.000;2023-12-14T10:50:30;24.67;;;17.33;;
14883;SDS011;7534;50.762;7.000;2023-12-14T10:58:07;23.80;;;16.53;;
14883;SDS011;7534;50.762;7.000;2023-12-14T11:00:34;22.27;;;15.10;;
14883;SDS011;7534;50.762;7.000;2023-12-14T11:03:05;22.80;;;16.53;;
14883;SDS011;7534;50.762;7.000;2023-12-14T11:05:35;22.43;;;15.87;;
14883;SDS011;7534;50.762;7.000;2023-12-14T11:08:07;26.17;;;18.27;;
14883;SDS011;7534;50.762;7.000;2023-12-14T11:10:53;24.03;;;17.13;;
14883;SDS011;7534;50.762;7.000;2023-12-14T11:13:22;27.20;;;19.00;;
14883;SDS011;7534;50.762;7.000;2023-12-14T11:15:53;26.37;;;18.50;;
14883;SDS011;7534;50.762;7.000;2023-12-14T11:18:22;26.47;;;18.73;;
14883;SDS011;7534;50.762;7.000;2023-12-14T11:20:50;27.13;;;17.80;;
14883;SDS011;7534;50.762;7.000;2023-12-14T11:25:48;22.80;;;18.00;;
14883;SDS011;7534;50.762;7.000;2023-12-14T11:28:19;22.13;;;16.33;;
14883;SDS011;7534;50.762;7.000;2023-12-14T11:30:46;21.17;;;15.63;;
14883;SDS011;7534;50.762;7.000;2023-12-14T11:33:12;22.73;;;17.13;;
14883;SDS011;7534;50.762;7.000;2023-12-14T11:35:39;21.80;;;16.57;;
14883;SDS011;7534;50.762;7.000;2023-12-14T11:38:05;21.10;;;15.57;;
14883;SDS011;7534;50.762;7.000;2023-12-14T11:40:42;21.00;;;16.53;;
14883;SDS011;7534;50.762;7.000;2023-12-14T11:43:14;23.07;;;17.67;;
14883;SDS011;7534;50.762;7.000;2023-12-14T11:45:43;24.13;;;17.73;;
14883;SDS011;7534;50.762;7.000;2023-12-14T11:48:09;22.50;;;16.83;;
14883;SDS011;7534;50.762;7.000;2023-12-14T11:50:39;22.37;;;16.03;;
14883;SDS011;7534;50.762;7.000;2023-12-14T11:53:14;21.23;;;16.00;;
14883;SDS011;7534;50.762;7.000;2023-12-14T11:55:42;22.40;;;16.00;;
14883;SDS011;7534;50.762;7.000;2023-12-14T11:58:11;21.40;;;15.93;;
14883;SDS011;7534;50.762;7.000;2023-12-14T12:00:42;26.13;;;19.97;;
14883;SDS011;7534;50.762;7.000;2023-12-14T12:03:18;22.33;;;16.60;;
14883;SDS011;7534;50.762;7.000;2023-12-14T12:05:47;21.10;;;16.23;;
14883;SDS011;7534;50.762;7.000;2023-12-14T12:08:19;25.10;;;19.33;;
14883;SDS011;7534;50.762;7.000;2023-12-14T13:23:01;19.10;;;14.77;;
14883;SDS011;7534;50.762;7.000;2023-12-14T13:25:27;16.83;;;13.27;;
14883;SDS011;7534;50.762;7.000;2023-12-14T13:27:55;17.87;;;13.70;;
14883;SDS011;7534;50.762;7.000;2023-12-14T13:30:21;16.73;;;13.47;;
14883;SDS011;7534;50.762;7.000;2023-12-14T13:32:47;16.23;;;13.10;;
14883;SDS011;7534;50.762;7.000;2023-12-14T13:35:13;15.37;;;13.13;;
14883;SDS011;7534;50.762;7.000;2023-12-14T13:37:42;16.10;;;13.93;;
14883;SDS011;7534;50.762;7.000;2023-12-14T13:40:08;19.00;;;14.53;;
14883;SDS011;7534;50.762;7.000;2023-12-14T13:42:35;17.40;;;14.53;;
14883;SDS011;7534;50.762;7.000;2023-12-14T13:45:23;17.20;;;13.17;;
14883;SDS011;7534;50.762;7.000;2023-12-14T13:47:49;18.33;;;14.00;;
14883;SDS011;7534;50.762;7.000;2023-12-14T13:50:15;17.27;;;13.77;;
14883;SDS011;7534;50.762;7.000;2023-12-14T13:55:42;19.50;;;14.53;;
14883;SDS011;7534;50.762;7.000;2023-12-14T13:58:07;18.40;;;14.77;;
14883;SDS011;7534;50.762;7.000;2023-12-14T14:00:33;17.93;;;14.20;;
14883;SDS011;7534;50.762;7.000;2023-12-14T14:03:00;19.27;;;14.60;;
14883;SDS011;7534;50.762;7.000;2023-12-14T14:05:45;14.07;;;11.13;;
14883;SDS011;7534;50.762;7.000;2023-12-14T14:08:10;15.93;;;13.93;;
14883;SDS011;7534;50.762;7.000;2023-12-14T14:10:36;13.43;;;11.30;;
14883;SDS011;7534;50.762;7.000;2023-12-14T14:13:02;13.18;;;11.85;;
14883;SDS011;7534;50.762;7.000;2023-12-14T14:15:28;12.37;;;9.80;;
14883;SDS011;7534;50.762;7.000;2023-12-14T14:17:53;11.77;;;9.00;;
14883;SDS011;7534;50.762;7.000;2023-12-14T14:20:20;12.27;;;9.10;;
14883;SDS011;7534;50.762;7.000;2023-12-14T14:22:47;11.13;;;9.57;;
14883;SDS011;7534;50.762;7.000;2023-12-14T14:25:13;12.27;;;9.77;;
14883;SDS011;7534;50.762;7.000;2023-12-14T14:27:39;13.37;;;9.53;;
14883;SDS011;7534;50.762;7.000;2023-12-14T14:30:06;12.10;;;10.10;;
14883;SDS011;7534;50.762;7.000;2023-12-14T14:32:32;12.03;;;9.70;;
14883;SDS011;7534;50.762;7.000;2023-12-14T14:35:02;14.30;;;10.40;;
14883;SDS011;7534;50.762;7.000;2023-12-14T14:37:29;12.63;;;9.87;;
14883;SDS011;7534;50.762;7.000;2023-12-14T14:39:55;13.63;;;10.57;;
14883;SDS011;7534;50.762;7.000;2023-12-14T14:42:23;12.07;;;9.40;;
14883;SDS011;7534;50.762;7.000;2023-12-14T14:44:54;12.43;;;10.33;;
14883;SDS011;7534;50.762;7.000;2023-12-14T14:47:21;14.93;;;11.50;;
14883;SDS011;7534;50.762;7.000;2023-12-14T14:49:52;16.10;;;13.27;;
14883;SDS011;7534;50.762;7.000;2023-12-14T14:52:36;14.97;;;11.07;;
14883;SDS011;7534;50.762;7.000;2023-12-14T14:55:50;12.77;;;10.40;;
14883;SDS011;7534;50.762;7.000;2023-12-14T14:58:22;15.50;;;11.17;;
14883;SDS011;7534;50.762;7.000;2023-12-14T15:00:48;14.10;;;10.60;;
14883;SDS011;7534;50.762;7.000;2023-12-14T15:03:14;14.10;;;10.87;;
14883;SDS011;7534;50.762;7.000;2023-12-14T15:05:40;16.53;;;11.57;;
14883;SDS011;7534;50.762;7.000;2023-12-14T15:08:06;15.40;;;11.00;;
14883;SDS011;7534;50.762;7.000;2023-12-14T15:10:32;14.70;;;11.53;;
14883;SDS011;7534;50.762;7.000;2023-12-14T15:13:00;17.33;;;13.13;;
14883;SDS011;7534;50.762;7.000;2023-12-14T15:15:28;16.13;;;11.97;;
14883;SDS011;7534;50.762;7.000;2023-12-14T15:17:53;16.87;;;13.67;;
14883;SDS011;7534;50.762;7.000;2023-12-14T15:20:19;16.43;;;12.13;;
14883;SDS011;7534;50.762;7.000;2023-12-14T15:22:46;17.60;;;13.13;;
14883;SDS011;7534;50.762;7.000;2023-12-14T15:25:12;16.97;;;13.40;;
14883;SDS011;7534;50.762;7.000;2023-12-14T15:27:41;19.67;;;13.73;;
14883;SDS011;7534;50.762;7.000;2023-12-14T15:30:09;17.80;;;13.17;;
14883;SDS011;7534;50.762;7.000;2023-12-14T15:32:40;16.83;;;12.93;;
14883;SDS011;7534;50.762;7.000;2023-12-14T15:35:14;17.73;;;14.07;;
14883;SDS011;7534;50.762;7.000;2023-12-14T15:37:40;16.00;;;12.13;;
14883;SDS011;7534;50.762;7.000;2023-12-14T15:40:06;18.73;;;13.37;;
14883;SDS011;7534;50.762;7.000;2023-12-14T15:42:44;16.53;;;13.03;;
14883;SDS011;7534;50.762;7.000;2023-12-14T15:45:15;17.30;;;13.33;;
14883;SDS011;7534;50.762;7.000;2023-12-14T15:47:46;18.47;;;14.03;;
14883;SDS011;7534;50.762;7.000;2023-12-14T15:50:12;17.17;;;13.33;;
14883;SDS011;7534;50.762;7.000;2023-12-14T15:52:51;19.80;;;13.70;;
14883;SDS011;7534;50.762;7.000;2023-12-14T15:55:18;17.83;;;13.87;;
14883;SDS011;7534;50.762;7.000;2023-12-14T15:57:47;20.80;;;14.53;;
14883;SDS011;7534;50.762;7.000;2023-12-14T16:00:15;17.70;;;13.70;;